Time;durP1;ratioP1;P1;durP2;ratioP2;P2;SDS_P1;SDS_P2;PMS_P1;PMS_P2;Temp;Humidity;BMP_temperature;BMP_pressure;BME280_temperature;BME280_humidity;BME280_pressure;Samples;Min_cycle;Max_cycle;Signal;HPM_P1;HPM_P2
2023/10/12 00:01:57;;;;;;;2.58;2.05;;;;;;;;;;5071347;28;20626;-88
2023/10/12 00:04:27;;;;;;;3.10;1.83;;;;;;;;;;5071499;28;20196;-88
2023/10/12 00:06:58;;;;;;;4.63;2.90;;;;;;;;;;5071432;28;20557;-88
2023/10/12 00:09:27;;;;;;;3.67;2.70;;;;;;;;;;5073462;28;20213;-88
2023/10/12 00:11:57;;;;;;;4.88;2.78;;;;;;;;;;5075310;28;20575;-88
2023/10/12 00:14:28;;;;;;;3.97;2.67;;;;;;;;;;5075514;28;20588;-88
2023/10/12 00:16:55;;;;;;;4.10;2.15;;;;;;;;;;5075938;28;20213;-89
2023/10/12 00:19:23;;;;;;;3.30;2.40;;;;;;;;;;5077648;28;20197;-88
2023/10/12 00:21:56;;;;;;;5.50;2.28;;;;;;;;;;5080808;28;20885;-89
2023/10/12 00:24:25;;;;;;;4.35;2.28;;;;;;;;;;5064276;28;20225;-89
2023/10/12 00:26:53;;;;;;;3.00;2.38;;;;;;;;;;5059749;28;20230;-89
2023/10/12 00:29:22;;;;;;;6.03;3.20;;;;;;;;;;5062377;28;20790;-89
2023/10/12 00:31:50;;;;;;;4.32;2.95;;;;;;;;;;5056182;28;20198;-89
2023/10/12 00:34:23;;;;;;;5.32;2.25;;;;;;;;;;5054532;28;20194;-88
2023/10/12 00:36:53;;;;;;;2.88;2.05;;;;;;;;;;5054937;28;20198;-89
2023/10/12 00:39:27;;;;;;;2.38;2.03;;;;;;;;;;5054110;28;20205;-88
2023/10/12 00:41:56;;;;;;;4.13;2.45;;;;;;;;;;5057566;28;20295;-89
2023/10/12 00:44:28;;;;;;;6.28;2.30;;;;;;;;;;5057636;28;20194;-88
2023/10/12 00:47:12;;;;;;;3.72;3.20;;;;;;;;;;5055799;28;20205;-89
2023/10/12 00:49:48;;;;;;;2.90;2.50;;;;;;;;;;5054369;28;20731;-89
2023/10/12 00:52:25;;;;;;;5.63;2.05;;;;;;;;;;5056157;28;20699;-90
2023/10/12 00:55:14;;;;;;;3.90;2.55;;;;;;;;;;5064771;28;20203;-90
2023/10/12 00:57:44;;;;;;;2.80;1.98;;;;;;;;;;5054558;28;20271;-90
2023/10/12 01:00:16;;;;;;;3.25;2.25;;;;;;;;;;5054691;28;20570;-89
2023/10/12 01:03:06;;;;;;;2.60;2.40;;;;;;;;;;5055253;28;20583;-89
2023/10/12 01:05:35;;;;;;;3.90;2.88;;;;;;;;;;5054053;28;20197;-89
2023/10/12 01:08:03;;;;;;;2.72;2.40;;;;;;;;;;5054342;28;20217;-90
2023/10/12 01:10:33;;;;;;;2.67;2.15;;;;;;;;;;5053948;28;20221;-89
2023/10/12 01:13:01;;;;;;;3.15;2.15;;;;;;;;;;5054292;28;20208;-89
2023/10/12 01:15:32;;;;;;;3.40;2.42;;;;;;;;;;5053750;28;20236;-89
2023/10/12 01:17:59;;;;;;;2.83;2.13;;;;;;;;;;5053943;28;20659;-89
2023/10/12 01:20:29;;;;;;;1.73;1.63;;;;;;;;;;5061447;28;20221;-89
2023/10/12 01:22:58;;;;;;;1.98;1.77;;;;;;;;;;5060288;28;20205;-89
2023/10/12 01:25:29;;;;;;;2.83;2.08;;;;;;;;;;5053458;28;20558;-89
2023/10/12 01:28:01;;;;;;;4.85;2.30;;;;;;;;;;5053980;28;20197;-89
2023/10/12 01:30:29;;;;;;;2.67;1.88;;;;;;;;;;5053154;28;20210;-88
2023/10/12 01:32:57;;;;;;;4.35;2.25;;;;;;;;;;5053676;28;20220;-88
2023/10/12 01:35:33;;;;;;;4.20;2.58;;;;;;;;;;5053670;28;20202;-88
2023/10/12 01:38:04;;;;;;;3.40;3.10;;;;;;;;;;5053754;28;20190;-89
2023/10/12 01:40:43;;;;;;;3.00;2.33;;;;;;;;;;5053457;28;20221;-89
2023/10/12 01:43:15;;;;;;;5.50;1.92;;;;;;;;;;5053599;28;20201;-89
2023/10/12 01:45:43;;;;;;;2.35;1.80;;;;;;;;;;5053460;28;20229;-89
2023/10/12 01:48:16;;;;;;;2.25;1.92;;;;;;;;;;5053309;28;20260;-89
2023/10/12 01:50:43;;;;;;;2.45;1.83;;;;;;;;;;5053038;28;20635;-89
2023/10/12 01:53:26;;;;;;;3.42;1.70;;;;;;;;;;5058930;28;20672;-88
2023/10/12 01:55:54;;;;;;;3.05;1.90;;;;;;;;;;5052799;28;20209;-89
2023/10/12 01:58:27;;;;;;;4.82;2.42;;;;;;;;;;5052805;28;20198;-88
2023/10/12 02:00:54;;;;;;;2.80;2.25;;;;;;;;;;5052854;28;20232;-88
2023/10/12 02:03:31;;;;;;;4.45;2.78;;;;;;;;;;5053105;28;20289;-89
2023/10/12 02:06:04;;;;;;;2.40;2.10;;;;;;;;;;5053016;28;20205;-88
2023/10/12 02:08:39;;;;;;;4.32;2.70;;;;;;;;;;5052429;28;20236;-88
2023/10/12 02:11:11;;;;;;;4.40;2.47;;;;;;;;;;5052482;28;20235;-88
2023/10/12 02:13:40;;;;;;;3.72;2.20;;;;;;;;;;5052927;28;20642;-88
2023/10/12 02:16:12;;;;;;;2.47;1.77;;;;;;;;;;5052876;28;20244;-88
2023/10/12 02:18:40;;;;;;;1.63;1.48;;;;;;;;;;5052635;28;20220;-89
2023/10/12 02:21:11;;;;;;;3.17;2.53;;;;;;;;;;5052094;28;20279;-89
2023/10/12 02:23:54;;;;;;;2.20;2.00;;;;;;;;;;5062661;28;20205;-89
2023/10/12 02:26:34;;;;;;;3.42;2.47;;;;;;;;;;5055559;28;20210;-89
2023/10/12 02:29:11;;;;;;;2.15;1.92;;;;;;;;;;5052199;28;20226;-90
2023/10/12 02:31:45;;;;;;;2.47;2.28;;;;;;;;;;5051631;28;20248;-88
2023/10/12 02:34:16;;;;;;;4.20;2.30;;;;;;;;;;5052546;28;20559;-88
2023/10/12 02:37:00;;;;;;;3.85;2.05;;;;;;;;;;5052379;28;20644;-88
2023/10/12 02:39:29;;;;;;;5.22;3.03;;;;;;;;;;5052179;28;20271;-89
2023/10/12 02:42:10;;;;;;;3.15;1.90;;;;;;;;;;5052395;28;20198;-88
2023/10/12 02:44:42;;;;;;;4.68;3.78;;;;;;;;;;5052112;28;20208;-89
2023/10/12 02:47:17;;;;;;;2.35;2.10;;;;;;;;;;5052140;28;20252;-88
2023/10/12 02:49:46;;;;;;;2.47;2.00;;;;;;;;;;5051952;28;20674;-88
2023/10/12 02:52:14;;;;;;;2.25;2.03;;;;;;;;;;5053803;28;20285;-88
2023/10/12 02:54:49;;;;;;;2.63;2.30;;;;;;;;;;5055852;28;20201;-88
2023/10/12 02:57:21;;;;;;;4.72;2.83;;;;;;;;;;5052354;28;20193;-88
2023/10/12 02:59:56;;;;;;;3.03;2.60;;;;;;;;;;5052028;28;20734;-88
2023/10/12 03:02:32;;;;;;;3.90;2.30;;;;;;;;;;5051988;28;20205;-88
2023/10/12 03:05:01;;;;;;;2.80;2.60;;;;;;;;;;5052454;28;20205;-89
2023/10/12 03:07:29;;;;;;;2.53;2.30;;;;;;;;;;5052085;28;20212;-88
2023/10/12 03:09:59;;;;;;;3.67;2.80;;;;;;;;;;5053200;28;20279;-89
2023/10/12 03:12:34;;;;;;;4.93;3.15;;;;;;;;;;5052801;28;20204;-89
2023/10/12 03:15:12;;;;;;;5.15;3.20;;;;;;;;;;5052371;28;20641;-88
2023/10/12 03:17:45;;;;;;;2.95;2.70;;;;;;;;;;5052631;28;20262;-88
2023/10/12 03:20:20;;;;;;;3.05;2.20;;;;;;;;;;5051844;28;20228;-89
2023/10/12 03:22:52;;;;;;;5.30;2.38;;;;;;;;;;5058018;28;20210;-88
2023/10/12 03:25:36;;;;;;;2.60;2.40;;;;;;;;;;5065107;28;20296;-89
2023/10/12 03:28:11;;;;;;;2.20;2.03;;;;;;;;;;5072317;28;20229;-89
2023/10/12 03:30:44;;;;;;;3.03;2.20;;;;;;;;;;5086324;28;20262;-88
2023/10/12 03:33:15;;;;;;;3.25;2.10;;;;;;;;;;5094790;28;20248;-89
2023/10/12 03:35:52;;;;;;;3.50;2.55;;;;;;;;;;5079309;28;20209;-87
2023/10/12 03:38:20;;;;;;;2.95;2.42;;;;;;;;;;5065904;28;20201;-87
2023/10/12 03:40:50;;;;;;;2.75;2.53;;;;;;;;;;5057612;28;20225;-88
2023/10/12 03:43:26;;;;;;;2.00;1.80;;;;;;;;;;5056777;28;20208;-87
2023/10/12 03:46:07;;;;;;;4.25;2.80;;;;;;;;;;5056716;28;20216;-88
2023/10/12 03:51:33;;;;;;;3.30;2.97;;;;;;;;;;5054051;28;20225;-89
2023/10/12 03:54:11;;;;;;;4.18;2.50;;;;;;;;;;5055312;28;20212;-89
2023/10/12 03:56:40;;;;;;;3.80;2.58;;;;;;;;;;5056916;28;20212;-89
2023/10/12 03:59:08;;;;;;;4.10;2.20;;;;;;;;;;5056650;28;20575;-89
2023/10/12 04:01:40;;;;;;;4.07;3.00;;;;;;;;;;5056453;28;20251;-89
2023/10/12 04:04:20;;;;;;;3.15;2.85;;;;;;;;;;5056727;28;20212;-89
2023/10/12 04:07:04;;;;;;;3.45;2.28;;;;;;;;;;5054418;28;20834;-89
2023/10/12 04:09:31;;;;;;;3.88;2.03;;;;;;;;;;5056399;28;20271;-89
2023/10/12 04:12:17;;;;;;;3.88;2.45;;;;;;;;;;5056690;28;20220;-89
2023/10/12 04:14:45;;;;;;;4.20;2.97;;;;;;;;;;5055218;28;20240;-89
2023/10/12 04:17:39;;;;;;;4.18;2.88;;;;;;;;;;5057708;28;20218;-89
2023/10/12 04:20:21;;;;;;;3.78;2.88;;;;;;;;;;5055769;28;20240;-90
2023/10/12 04:25:49;;;;;;;8.02;3.03;;;;;;;;;;5019316;28;20226;-89
2023/10/12 04:28:22;;;;;;;3.05;2.55;;;;;;;;;;5057079;28;20223;-89
2023/10/12 04:31:20;;;;;;;7.50;3.90;;;;;;;;;;5055917;28;20235;-89
2023/10/12 04:34:05;;;;;;;2.97;2.38;;;;;;;;;;5057603;28;21071;-89
2023/10/12 04:36:38;;;;;;;2.95;2.03;;;;;;;;;;5056880;28;20211;-90
2023/10/12 04:39:24;;;;;;;1.95;1.80;;;;;;;;;;5056339;28;20209;-90
2023/10/12 04:42:04;;;;;;;1.70;1.60;;;;;;;;;;5055682;28;20736;-88
2023/10/12 04:44:43;;;;;;;1.80;1.67;;;;;;;;;;5056948;28;20224;-90
2023/10/12 04:47:12;;;;;;;3.60;2.83;;;;;;;;;;5062929;28;20570;-89
2023/10/12 04:49:57;;;;;;;1.70;1.60;;;;;;;;;;5055235;28;20221;-89
2023/10/12 04:52:33;;;;;;;9.20;2.75;;;;;;;;;;5056719;28;20376;-89
2023/10/12 04:57:43;;;;;;;4.22;2.20;;;;;;;;;;5052216;28;20221;-89
2023/10/12 05:00:18;;;;;;;4.65;2.45;;;;;;;;;;5056499;28;20224;-89
2023/10/12 05:03:22;;;;;;;2.33;2.05;;;;;;;;;;5056611;28;20670;-90
2023/10/12 05:05:57;;;;;;;2.40;2.20;;;;;;;;;;5056845;28;20205;-89
2023/10/12 05:08:24;;;;;;;3.55;2.38;;;;;;;;;;5055358;28;20300;-89
2023/10/12 05:10:52;;;;;;;2.85;2.03;;;;;;;;;;5053996;28;20728;-90
2023/10/12 05:13:22;;;;;;;2.05;1.75;;;;;;;;;;5054315;28;20201;-89
2023/10/12 05:16:06;;;;;;;3.85;2.70;;;;;;;;;;5056021;28;20616;-90
2023/10/12 05:18:34;;;;;;;2.78;2.47;;;;;;;;;;5056027;28;20201;-89
2023/10/12 05:21:08;;;;;;;1.98;1.80;;;;;;;;;;5055201;28;20722;-90
2023/10/12 05:23:36;;;;;;;4.82;1.83;;;;;;;;;;5060721;28;20716;-90
2023/10/12 05:26:10;;;;;;;2.25;2.05;;;;;;;;;;5054560;28;20327;-89
2023/10/12 05:28:57;;;;;;;2.35;1.88;;;;;;;;;;5056162;28;21423;-90
2023/10/12 05:31:29;;;;;;;5.78;2.40;;;;;;;;;;5055584;28;20692;-89
2023/10/12 05:34:20;;;;;;;4.47;2.10;;;;;;;;;;5059341;28;20287;-90
2023/10/12 05:36:48;;;;;;;3.50;1.90;;;;;;;;;;5075134;28;20228;-90
2023/10/12 05:39:16;;;;;;;2.92;2.25;;;;;;;;;;5066734;28;20205;-89
2023/10/12 05:41:44;;;;;;;4.63;1.60;;;;;;;;;;5074911;28;20208;-90
2023/10/12 05:44:16;;;;;;;2.58;1.80;;;;;;;;;;5074908;28;20627;-90
2023/10/12 05:46:51;;;;;;;1.85;1.55;;;;;;;;;;5080125;28;20201;-89
2023/10/12 05:49:24;;;;;;;3.83;3.00;;;;;;;;;;5074723;28;20204;-90
2023/10/12 05:51:51;;;;;;;1.63;1.48;;;;;;;;;;5064262;28;20221;-90
2023/10/12 05:54:20;;;;;;;2.83;2.00;;;;;;;;;;5062041;28;20216;-90
2023/10/12 05:56:49;;;;;;;4.90;2.88;;;;;;;;;;5064802;28;20642;-89
2023/10/12 05:59:18;;;;;;;3.03;1.95;;;;;;;;;;5074703;28;20205;-90
2023/10/12 06:01:48;;;;;;;3.53;2.08;;;;;;;;;;5074711;28;20229;-89
2023/10/12 06:04:19;;;;;;;3.13;2.00;;;;;;;;;;5074566;28;20562;-90
2023/10/12 06:06:48;;;;;;;2.55;1.70;;;;;;;;;;5074817;28;20616;-89
2023/10/12 06:09:20;;;;;;;1.98;1.83;;;;;;;;;;5074277;28;20655;-91
2023/10/12 06:11:49;;;;;;;4.32;2.25;;;;;;;;;;5074567;28;20220;-90
2023/10/12 06:14:20;;;;;;;2.13;1.88;;;;;;;;;;5074207;28;20193;-89
2023/10/12 06:16:54;;;;;;;2.70;1.70;;;;;;;;;;5074385;28;20730;-89
2023/10/12 06:19:25;;;;;;;2.22;1.88;;;;;;;;;;5074590;28;20622;-90
2023/10/12 06:21:57;;;;;;;2.55;2.05;;;;;;;;;;5071302;28;20258;-90
2023/10/12 06:24:33;;;;;;;2.28;1.95;;;;;;;;;;5055306;28;20209;-91
2023/10/12 06:27:15;;;;;;;3.58;1.80;;;;;;;;;;5059816;28;20197;-90
2023/10/12 06:29:42;;;;;;;2.95;1.58;;;;;;;;;;5054015;28;20221;-90
2023/10/12 06:32:17;;;;;;;2.78;1.75;;;;;;;;;;5053508;28;20221;-90
2023/10/12 06:34:45;;;;;;;1.70;1.60;;;;;;;;;;5054248;28;20197;-91
2023/10/12 06:37:49;;;;;;;1.67;1.58;;;;;;;;;;5053138;28;20749;-91
2023/10/12 06:40:37;;;;;;;2.33;1.63;;;;;;;;;;5053208;28;20226;-91
2023/10/12 06:45:46;;;;;;;3.75;1.90;;;;;;;;;;5052163;28;20200;-90
2023/10/12 06:48:23;;;;;;;2.60;2.17;;;;;;;;;;5052648;28;20229;-90
2023/10/12 06:51:02;;;;;;;1.95;1.48;;;;;;;;;;5056488;28;20244;-90
2023/10/12 06:53:33;;;;;;;2.05;1.50;;;;;;;;;;5053127;28;20221;-90
2023/10/12 06:56:16;;;;;;;1.30;1.20;;;;;;;;;;5053259;28;20202;-90
2023/10/12 06:58:43;;;;;;;2.08;1.40;;;;;;;;;;5052716;28;20202;-90
2023/10/12 07:01:21;;;;;;;2.75;1.60;;;;;;;;;;5052164;28;20635;-90
2023/10/12 07:03:49;;;;;;;1.10;1.10;;;;;;;;;;5052119;28;20205;-89
2023/10/12 07:06:17;;;;;;;1.63;1.30;;;;;;;;;;5052176;28;20201;-89
2023/10/12 07:08:46;;;;;;;3.47;2.03;;;;;;;;;;5051834;28;20205;-89
2023/10/12 07:11:14;;;;;;;1.73;1.40;;;;;;;;;;5051650;28;20218;-90
2023/10/12 07:13:42;;;;;;;1.67;1.38;;;;;;;;;;5052112;28;20617;-90
2023/10/12 07:16:10;;;;;;;1.33;1.23;;;;;;;;;;5051916;28;20217;-89
2023/10/12 07:18:43;;;;;;;1.83;1.60;;;;;;;;;;5054915;28;20204;-90
2023/10/12 07:21:20;;;;;;;1.70;1.60;;;;;;;;;;5059005;28;20734;-89
2023/10/12 07:23:52;;;;;;;2.42;1.80;;;;;;;;;;5072195;28;20283;-89
2023/10/12 07:26:19;;;;;;;1.75;1.60;;;;;;;;;;5075984;28;20236;-89
2023/10/12 07:28:49;;;;;;;1.60;1.50;;;;;;;;;;5075513;28;20290;-89
2023/10/12 07:31:38;;;;;;;2.42;1.50;;;;;;;;;;5075527;28;20389;-89
2023/10/12 07:34:07;;;;;;;2.05;1.38;;;;;;;;;;5084131;28;20189;-89
2023/10/12 07:36:52;;;;;;;1.50;1.40;;;;;;;;;;5075531;28;20704;-90
2023/10/12 07:39:21;;;;;;;2.05;1.60;;;;;;;;;;5075209;28;20686;-89
2023/10/12 07:41:56;;;;;;;1.92;1.70;;;;;;;;;;5075771;28;20205;-89
2023/10/12 07:44:25;;;;;;;3.05;1.60;;;;;;;;;;5075647;28;20205;-90
2023/10/12 07:46:56;;;;;;;3.45;3.05;;;;;;;;;;5075697;28;20322;-89
2023/10/12 07:49:37;;;;;;;1.92;1.83;;;;;;;;;;5075280;28;20228;-89
2023/10/12 07:52:14;;;;;;;2.22;2.03;;;;;;;;;;5074654;28;20224;-89
2023/10/12 07:54:53;;;;;;;3.80;1.80;;;;;;;;;;5075614;28;20205;-89
2023/10/12 07:57:22;;;;;;;2.70;2.25;;;;;;;;;;5075303;28;20339;-88
2023/10/12 07:59:59;;;;;;;1.70;1.60;;;;;;;;;;5075081;28;20228;-89
2023/10/12 08:03:05;;;;;;;3.33;1.75;;;;;;;;;;5079572;28;20200;-89
2023/10/12 08:05:56;;;;;;;3.58;2.03;;;;;;;;;;5085140;28;20201;-89
2023/10/12 08:08:34;;;;;;;3.60;2.03;;;;;;;;;;5100479;28;20189;-89
2023/10/12 08:11:10;;;;;;;1.88;1.70;;;;;;;;;;5100246;28;20235;-88
2023/10/12 08:13:47;;;;;;;2.45;1.77;;;;;;;;;;5086505;28;20224;-88
2023/10/12 08:16:15;;;;;;;3.13;1.60;;;;;;;;;;5075628;28;20215;-88
2023/10/12 08:21:34;;;;;;;2.33;1.73;;;;;;;;;;5058866;28;20217;-88
2023/10/12 08:24:09;;;;;;;3.03;1.95;;;;;;;;;;5074790;28;20459;-89
2023/10/12 08:26:49;;;;;;;1.98;1.77;;;;;;;;;;5074980;28;20211;-89
2023/10/12 08:29:47;;;;;;;3.63;2.10;;;;;;;;;;5073881;28;20646;-89
2023/10/12 08:32:15;;;;;;;2.60;1.73;;;;;;;;;;5074570;28;20209;-89
2023/10/12 08:35:10;;;;;;;3.10;1.80;;;;;;;;;;5083538;28;20192;-89
2023/10/12 08:40:26;;;;;;;1.92;1.73;;;;;;;;;;5074070;28;20266;-89
2023/10/12 08:42:58;;;;;;;1.60;1.50;;;;;;;;;;5075023;28;20197;-89
2023/10/12 08:45:30;;;;;;;1.77;1.63;;;;;;;;;;5074815;28;20189;-89
2023/10/12 08:48:01;;;;;;;1.48;1.38;;;;;;;;;;5074858;28;20195;-90
2023/10/12 08:53:20;;;;;;;1.83;1.60;;;;;;;;;;5077792;28;20227;-90
2023/10/12 08:55:51;;;;;;;2.10;1.67;;;;;;;;;;5074360;28;20223;-88
2023/10/12 08:58:38;;;;;;;1.70;1.52;;;;;;;;;;5074257;28;20629;-89
2023/10/12 09:01:22;;;;;;;2.80;1.77;;;;;;;;;;5074344;28;20233;-90
2023/10/12 09:03:53;;;;;;;4.53;2.80;;;;;;;;;;5074582;28;20246;-89
2023/10/12 09:06:29;;;;;;;2.15;1.67;;;;;;;;;;5074102;28;20638;-90
2023/10/12 09:08:57;;;;;;;4.40;2.10;;;;;;;;;;5074248;28;20211;-90
2023/10/12 09:11:33;;;;;;;2.88;1.70;;;;;;;;;;5074237;28;20221;-90
2023/10/12 09:14:00;;;;;;;4.05;2.08;;;;;;;;;;5075677;28;20216;-89
2023/10/12 09:16:29;;;;;;;2.45;2.08;;;;;;;;;;5077033;28;20704;-90
2023/10/12 09:19:00;;;;;;;2.45;1.80;;;;;;;;;;5075672;28;20281;-91
2023/10/12 09:21:40;;;;;;;4.95;2.13;;;;;;;;;;5069553;28;20217;-91
2023/10/12 09:24:15;;;;;;;5.32;2.67;;;;;;;;;;5054316;28;20201;-90
2023/10/12 09:26:57;;;;;;;4.75;3.95;;;;;;;;;;5054213;28;20205;-91
2023/10/12 09:29:27;;;;;;;2.08;1.88;;;;;;;;;;5055111;28;20197;-89
2023/10/12 09:34:47;;;;;;;3.90;2.65;;;;;;;;;;5053633;28;20232;-89
2023/10/12 09:37:17;;;;;;;3.78;3.22;;;;;;;;;;5053905;28;20212;-90
2023/10/12 09:39:47;;;;;;;3.28;2.97;;;;;;;;;;5053469;28;20225;-91
2023/10/12 09:42:28;;;;;;;4.75;3.42;;;;;;;;;;5053656;28;20629;-90
2023/10/12 09:45:01;;;;;;;2.25;2.13;;;;;;;;;;5053539;28;20198;-90
2023/10/12 09:47:43;;;;;;;3.55;2.45;;;;;;;;;;5053467;28;20248;-89
2023/10/12 09:50:16;;;;;;;5.30;3.15;;;;;;;;;;5053614;28;20213;-88
2023/10/12 09:52:57;;;;;;;2.53;2.20;;;;;;;;;;5057020;28;20212;-89
2023/10/12 09:55:32;;;;;;;2.20;2.00;;;;;;;;;;5053494;28;20194;-90
2023/10/12 09:58:13;;;;;;;2.20;2.00;;;;;;;;;;5053624;28;20585;-90
2023/10/12 10:00:55;;;;;;;2.63;2.05;;;;;;;;;;5053089;28;20229;-89
2023/10/12 10:03:24;;;;;;;6.40;3.88;;;;;;;;;;5053645;28;20647;-89
2023/10/12 10:06:03;;;;;;;3.17;2.38;;;;;;;;;;5053924;28;20659;-90
2023/10/12 10:08:32;;;;;;;3.22;2.80;;;;;;;;;;5053661;28;20264;-90
2023/10/12 10:11:07;;;;;;;2.72;2.53;;;;;;;;;;5054243;28;20226;-90
2023/10/12 10:13:46;;;;;;;4.50;3.03;;;;;;;;;;5055159;28;20275;-90
2023/10/12 10:16:17;;;;;;;2.65;2.38;;;;;;;;;;5054178;28;20205;-89
2023/10/12 10:18:49;;;;;;;2.83;2.50;;;;;;;;;;5054690;28;20222;-89
2023/10/12 10:21:21;;;;;;;3.10;2.80;;;;;;;;;;5058368;28;20231;-89
2023/10/12 10:23:52;;;;;;;3.38;3.10;;;;;;;;;;5055375;28;20206;-90
2023/10/12 10:26:23;;;;;;;2.95;2.30;;;;;;;;;;5055041;28;20233;-89
2023/10/12 10:29:04;;;;;;;2.60;2.22;;;;;;;;;;5054925;28;20244;-89
2023/10/12 10:31:34;;;;;;;2.85;2.65;;;;;;;;;;5054579;28;20335;-89
2023/10/12 10:34:05;;;;;;;3.30;2.83;;;;;;;;;;5054521;28;20217;-90
2023/10/12 10:36:37;;;;;;;3.30;2.60;;;;;;;;;;5054727;28;20209;-89
2023/10/12 10:39:28;;;;;;;4.13;3.13;;;;;;;;;;5055085;28;20212;-90
2023/10/12 10:42:00;;;;;;;3.17;2.70;;;;;;;;;;5055401;28;20280;-89
2023/10/12 10:44:29;;;;;;;3.03;2.72;;;;;;;;;;5053680;28;20194;-89
2023/10/12 10:47:06;;;;;;;4.60;2.65;;;;;;;;;;5053240;28;20208;-88
2023/10/12 10:49:34;;;;;;;2.70;2.28;;;;;;;;;;5052978;28;20243;-89
2023/10/12 10:52:13;;;;;;;4.05;2.80;;;;;;;;;;5065531;28;20232;-89
2023/10/12 10:54:56;;;;;;;4.05;2.75;;;;;;;;;;5074167;28;20243;-89
2023/10/12 10:57:31;;;;;;;5.97;2.88;;;;;;;;;;5074429;28;20189;-89
2023/10/12 11:00:00;;;;;;;4.07;3.05;;;;;;;;;;5074126;28;20566;-89
2023/10/12 11:02:29;;;;;;;4.57;2.65;;;;;;;;;;5073271;28;20200;-88
2023/10/12 11:05:00;;;;;;;3.97;3.28;;;;;;;;;;5073632;28;20200;-89
2023/10/12 11:07:27;;;;;;;2.60;2.33;;;;;;;;;;5072983;28;20583;-89
2023/10/12 11:10:19;;;;;;;2.53;2.33;;;;;;;;;;5073058;28;20252;-90
2023/10/12 11:12:48;;;;;;;4.38;3.13;;;;;;;;;;5072712;28;20197;-89
2023/10/12 11:15:19;;;;;;;3.30;3.00;;;;;;;;;;5072442;28;20232;-88
2023/10/12 11:18:07;;;;;;;3.75;2.92;;;;;;;;;;5073239;28;20236;-89
2023/10/12 11:20:40;;;;;;;2.60;2.40;;;;;;;;;;5073664;28;20312;-88
2023/10/12 11:23:08;;;;;;;4.18;2.40;;;;;;;;;;5073301;28;20205;-88
2023/10/12 11:25:39;;;;;;;2.88;2.67;;;;;;;;;;5054862;28;20201;-88
2023/10/12 11:28:23;;;;;;;3.58;2.85;;;;;;;;;;5053184;28;20251;-88
2023/10/12 11:31:01;;;;;;;2.92;2.10;;;;;;;;;;5053262;28;20243;-89
2023/10/12 11:33:29;;;;;;;2.85;2.28;;;;;;;;;;5054990;28;20217;-90
2023/10/12 11:36:03;;;;;;;6.20;2.30;;;;;;;;;;5054469;28;20300;-89
2023/10/12 11:38:31;;;;;;;2.25;2.05;;;;;;;;;;5053243;28;20668;-89
2023/10/12 11:41:13;;;;;;;3.08;2.55;;;;;;;;;;5054160;28;20703;-89
2023/10/12 11:43:52;;;;;;;2.78;2.15;;;;;;;;;;5052945;28;20221;-89
2023/10/12 11:46:23;;;;;;;3.85;2.50;;;;;;;;;;5056051;28;20194;-91
2023/10/12 11:49:05;;;;;;;3.65;2.08;;;;;;;;;;5057640;28;20201;-90
2023/10/12 11:51:39;;;;;;;3.10;2.80;;;;;;;;;;5061862;28;20228;-89
2023/10/12 11:54:08;;;;;;;4.75;3.25;;;;;;;;;;5062056;28;20217;-90
2023/10/12 11:56:43;;;;;;;5.82;2.60;;;;;;;;;;5072730;28;20197;-89
2023/10/12 11:59:13;;;;;;;4.18;2.40;;;;;;;;;;5073180;28;20208;-89
2023/10/12 12:01:43;;;;;;;2.50;2.10;;;;;;;;;;5075007;28;20201;-89
2023/10/12 12:04:23;;;;;;;4.18;2.47;;;;;;;;;;5076500;28;20274;-90
2023/10/12 12:06:51;;;;;;;4.03;2.20;;;;;;;;;;5078930;28;20197;-88
2023/10/12 12:09:18;;;;;;;6.82;2.20;;;;;;;;;;5077677;28;20302;-89
2023/10/12 12:11:47;;;;;;;2.97;2.45;;;;;;;;;;5078601;28;20279;-89
2023/10/12 12:14:14;;;;;;;2.20;2.00;;;;;;;;;;5077762;28;20243;-89
2023/10/12 12:16:43;;;;;;;3.65;2.03;;;;;;;;;;5077829;28;20251;-90
2023/10/12 12:19:17;;;;;;;4.85;3.42;;;;;;;;;;5077531;28;20244;-88
2023/10/12 12:21:45;;;;;;;5.03;1.95;;;;;;;;;;5077144;28;20212;-89
2023/10/12 12:24:21;;;;;;;2.88;2.25;;;;;;;;;;5067492;28;20277;-89
2023/10/12 12:26:51;;;;;;;2.25;2.05;;;;;;;;;;5057945;28;20205;-89
2023/10/12 12:29:24;;;;;;;2.55;2.22;;;;;;;;;;5057775;28;20224;-89
2023/10/12 12:31:54;;;;;;;2.20;2.00;;;;;;;;;;5057143;28;20667;-89
2023/10/12 12:34:41;;;;;;;3.08;2.75;;;;;;;;;;5057349;28;20205;-89
2023/10/12 12:37:09;;;;;;;3.40;2.65;;;;;;;;;;5066229;28;20197;-89
2023/10/12 12:39:37;;;;;;;3.22;2.25;;;;;;;;;;5057645;28;20754;-89
2023/10/12 12:42:09;;;;;;;7.10;4.05;;;;;;;;;;5057239;28;20353;-89
2023/10/12 12:44:36;;;;;;;2.03;1.88;;;;;;;;;;5057054;28;20205;-89
2023/10/12 12:47:06;;;;;;;4.35;2.53;;;;;;;;;;5058752;28;20281;-89
2023/10/12 12:49:34;;;;;;;2.53;2.33;;;;;;;;;;5075643;28;20221;-90
2023/10/12 12:52:02;;;;;;;2.38;1.77;;;;;;;;;;5075837;28;20648;-89
2023/10/12 12:54:31;;;;;;;2.55;2.38;;;;;;;;;;5072575;28;20205;-88
2023/10/12 12:56:59;;;;;;;2.17;1.98;;;;;;;;;;5057220;28;20244;-90
2023/10/12 12:59:27;;;;;;;2.78;1.50;;;;;;;;;;5055583;28;20289;-89
2023/10/12 13:01:55;;;;;;;1.60;1.50;;;;;;;;;;5056935;28;20193;-89
2023/10/12 13:04:26;;;;;;;2.47;2.00;;;;;;;;;;5056666;28;20285;-89
2023/10/12 13:06:53;;;;;;;3.80;2.72;;;;;;;;;;5056519;28;20243;-90
2023/10/12 13:09:30;;;;;;;2.72;1.90;;;;;;;;;;5056429;28;20297;-90
2023/10/12 13:11:57;;;;;;;2.05;1.88;;;;;;;;;;5056458;28;20228;-89
2023/10/12 13:14:28;;;;;;;2.55;2.35;;;;;;;;;;5055851;28;20205;-89
2023/10/12 13:16:56;;;;;;;3.72;2.63;;;;;;;;;;5055604;28;20296;-89
2023/10/12 13:19:25;;;;;;;4.07;2.70;;;;;;;;;;5055959;28;20212;-90
2023/10/12 13:21:53;;;;;;;2.72;2.15;;;;;;;;;;5067997;28;20228;-89
2023/10/12 13:24:20;;;;;;;3.05;2.75;;;;;;;;;;5064541;28;20304;-89
2023/10/12 13:26:48;;;;;;;5.45;3.00;;;;;;;;;;5056076;28;20210;-89
2023/10/12 13:29:16;;;;;;;3.03;2.72;;;;;;;;;;5055640;28;20205;-89
2023/10/12 13:31:44;;;;;;;2.20;2.00;;;;;;;;;;5056266;28;20531;-88
2023/10/12 13:34:11;;;;;;;3.35;2.00;;;;;;;;;;5056023;28;20198;-90
2023/10/12 13:36:40;;;;;;;6.28;3.53;;;;;;;;;;5055617;28;20253;-89
2023/10/12 13:39:10;;;;;;;4.53;4.00;;;;;;;;;;5055394;28;20276;-90
2023/10/12 13:41:37;;;;;;;3.92;3.17;;;;;;;;;;5055638;28;20201;-89
2023/10/12 13:44:06;;;;;;;3.30;2.50;;;;;;;;;;5054606;28;20209;-90
2023/10/12 13:46:34;;;;;;;4.35;3.45;;;;;;;;;;5053885;28;20206;-90
2023/10/12 13:49:06;;;;;;;2.58;2.33;;;;;;;;;;5054032;28;20197;-90
2023/10/12 13:51:36;;;;;;;3.05;2.42;;;;;;;;;;5059805;28;20305;-89
2023/10/12 13:54:06;;;;;;;1.67;1.58;;;;;;;;;;5062821;28;20210;-90
2023/10/12 13:56:35;;;;;;;4.53;2.33;;;;;;;;;;5054176;28;20598;-89
2023/10/12 13:59:02;;;;;;;4.13;1.92;;;;;;;;;;5054638;28;20201;-89
2023/10/12 14:01:36;;;;;;;3.25;2.10;;;;;;;;;;5055774;28;20241;-90
2023/10/12 14:04:28;;;;;;;3.97;2.22;;;;;;;;;;5056024;28;20622;-89
2023/10/12 14:06:52;;;;;;;2.47;2.28;;;;;;;;;;5055482;28;20211;-89
2023/10/12 14:09:27;;;;;;;3.38;2.30;;;;;;;;;;5055714;28;20265;-89
2023/10/12 14:11:55;;;;;;;2.67;2.40;;;;;;;;;;5056373;28;20273;-89
2023/10/12 14:14:24;;;;;;;2.58;2.33;;;;;;;;;;5055987;28;20273;-89
2023/10/12 14:16:51;;;;;;;2.25;2.05;;;;;;;;;;5054956;28;20222;-89
2023/10/12 14:19:22;;;;;;;1.85;1.58;;;;;;;;;;5055387;28;20284;-89
2023/10/12 14:21:52;;;;;;;2.20;2.00;;;;;;;;;;5056202;28;20209;-88
2023/10/12 14:24:23;;;;;;;2.15;1.90;;;;;;;;;;5067281;28;20204;-89
2023/10/12 14:26:55;;;;;;;2.78;2.28;;;;;;;;;;5074472;28;20201;-89
2023/10/12 14:29:24;;;;;;;2.22;1.80;;;;;;;;;;5075251;28;20205;-88
2023/10/12 14:31:52;;;;;;;2.13;1.98;;;;;;;;;;5075498;28;20201;-89
2023/10/12 14:34:19;;;;;;;5.38;2.60;;;;;;;;;;5074484;28;20257;-90
2023/10/12 14:36:48;;;;;;;3.35;2.10;;;;;;;;;;5073629;28;20312;-89
2023/10/12 14:39:22;;;;;;;3.40;2.08;;;;;;;;;;5073513;28;20607;-90
2023/10/12 14:41:51;;;;;;;3.15;2.50;;;;;;;;;;5075895;28;20199;-90
2023/10/12 14:44:19;;;;;;;2.63;2.10;;;;;;;;;;5074853;28;20196;-89
2023/10/12 14:46:50;;;;;;;1.60;1.50;;;;;;;;;;5076397;28;20270;-89
2023/10/12 14:49:17;;;;;;;2.03;1.77;;;;;;;;;;5074062;28;20224;-89
2023/10/12 14:51:45;;;;;;;1.85;1.75;;;;;;;;;;5068034;28;20582;-89
2023/10/12 14:54:12;;;;;;;6.35;1.63;;;;;;;;;;5054706;28;20733;-89
2023/10/12 14:56:42;;;;;;;2.65;1.80;;;;;;;;;;5054798;28;20675;-91
2023/10/12 14:59:11;;;;;;;3.45;3.13;;;;;;;;;;5062867;28;20226;-89
2023/10/12 15:01:39;;;;;;;3.60;2.00;;;;;;;;;;5054532;28;20565;-89
2023/10/12 15:04:07;;;;;;;4.15;2.40;;;;;;;;;;5055188;28;20206;-89
2023/10/12 15:06:35;;;;;;;1.70;1.60;;;;;;;;;;5054760;28;20666;-89
2023/10/12 15:09:04;;;;;;;1.95;1.75;;;;;;;;;;5054905;28;20284;-89
2023/10/12 15:11:33;;;;;;;2.22;1.75;;;;;;;;;;5054606;28;20221;-89
2023/10/12 15:14:01;;;;;;;3.13;2.42;;;;;;;;;;5054839;28;20202;-90
2023/10/12 15:16:31;;;;;;;3.53;2.40;;;;;;;;;;5054499;28;20229;-89
2023/10/12 15:18:58;;;;;;;3.15;2.58;;;;;;;;;;5054588;28;20595;-89
2023/10/12 15:21:26;;;;;;;3.97;2.53;;;;;;;;;;5054749;28;20248;-89
2023/10/12 15:23:54;;;;;;;2.28;2.08;;;;;;;;;;5054781;28;20221;-89
2023/10/12 15:26:22;;;;;;;1.80;1.70;;;;;;;;;;5054655;28;20208;-89
2023/10/12 15:28:51;;;;;;;2.05;1.40;;;;;;;;;;5054723;28;20293;-89
2023/10/12 15:31:23;;;;;;;4.75;2.70;;;;;;;;;;5054556;28;20260;-89
2023/10/12 15:33:52;;;;;;;2.75;2.25;;;;;;;;;;5054512;28;20623;-91
2023/10/12 15:36:19;;;;;;;4.53;2.40;;;;;;;;;;5069222;28;20221;-89
2023/10/12 15:38:47;;;;;;;2.97;2.00;;;;;;;;;;5078987;28;20221;-87
2023/10/12 15:41:14;;;;;;;1.95;1.85;;;;;;;;;;5081103;28;20202;-87